Forside
METAR-TAF:

METAR-TAF

Lufthavne :

Port-of-Spain, Trinidad, Trinidad og Tobago

Breddekreds: 10-37N, længdekreds: 061-21W, højde: 12 m

Aktuelle vejr

Denne rapport blev lavet for 53 minutter siden, kl. 23:00 UTC
Vind 11 kt fra østsydøst
Temperatur 26°C
Fugtighed 79%
Tryk 1012 hPa
Sigt 10 km eller mere
Nogle få skyer i en højde af 2000 ft

METAR: TTPP 252300Z 11011KT 9999 FEW020 26/22 Q1012 NOSIG

Tid: 19:53 (23:53 UTC)

Vejrudsigter

Denne rapport blev lavet for 1 time og 53 minutter siden, kl. 22:00 UTC
Foreløbig gælder fra 26 på 00 UTC til 26 på 24 UTC
Vind 5 kt fra øst
Sigt 10 km eller mere
Nogle få skyer i en højde af 1600 ft
Sandsynlighed 40% :
Midlertidig
fra 26 på 00 UTC til 26 på 06 UTC
Sigt: 6000 m
Spredte skyer i en højde af 1500 ft
regnbyger
ændring
fra 26 på 11 UTC til 26 på 13 UTC
Vind 14 kt fra øst
Spredte skyer i en højde af 2000 ft

TAF: TTPP 252200Z 2600/2624 10005KT 9999 FEW016 PROB40 TEMPO 2600/2606 6000 SHRA SCT015 BECMG 2611/2613 10014KT SCT020

Vejrobservationer og prognoser fra mere end 4000 lufthavne (METAR og TAF).

De gule og røde prikker repræsenterer de meteorologiske stationer.

Flyt musen over at se navnet på stationen.

Så klik over at se vejr observationer og prognoser.

At skifte det kort: Klik på de grønne knapper med et sort kors for at zoome ind; på den grønne knap med en bindestreg for at zoome ud; eller på de grønne pile for tilstødende kort.


METAR-TAF: